This is the latest recevied weather packets stored in our database for station/object KQ4HEI. If no packets are shown the sender has not sent any weather packets the latest 10 day(s).
| Time | Temp. | Humidity | Pressure | Rain* | Wind** | Luminosity | Snow |
|---|---|---|---|---|---|---|---|
| 1777595492 | 23.33° C | 74% | 1009.5 hPa | 0 mm | - | - | - |
| 1777594892 | 23.89° C | 71% | 1009.3 hPa | 0 mm | - | - | - |
| 1777594291 | 24.44° C | 69% | 1009.2 hPa | 0 mm | - | - | - |
| 1777593691 | 25° C | 69% | 1009.1 hPa | 0 mm | - | - | - |
| 1777593091 | 25.56° C | 66% | 1009 hPa | 0 mm | - | - | - |
| 1777592491 | 26.11° C | 64% | 1008.6 hPa | 0 mm | - | - | - |
| 1777591891 | 26.67° C | 61% | 1008.4 hPa | 0 mm | - | - | - |
| 1777591291 | 26.67° C | 60% | 1008.5 hPa | 0 mm | - | - | - |
| 1777590691 | 27.22° C | 59% | 1008.3 hPa | 0 mm | - | - | - |
| 1777590091 | 27.22° C | 59% | 1008.4 hPa | 0 mm | - | - | - |
| 1777589491 | 27.22° C | 59% | 1008.5 hPa | 0 mm | - | - | - |
| 1777588891 | 27.22° C | 58% | 1008.7 hPa | 0 mm | - | - | - |
| 1777588291 | 27.78° C | 58% | 1009 hPa | 0 mm | - | - | - |
| 1777587691 | 27.78° C | 57% | 1008.9 hPa | 0 mm | - | - | - |
| 1777587091 | 27.78° C | 56% | 1008.7 hPa | 0 mm | - | - | - |
| 1777586492 | 27.78° C | 57% | 1008.8 hPa | 0 mm | - | - | - |
| 1777585891 | 27.78° C | 57% | 1008.9 hPa | 0 mm | - | - | - |
| 1777585291 | 28.33° C | 55% | 1009.1 hPa | 0 mm | - | - | - |
| 1777584692 | 28.89° C | 54% | 1008.9 hPa | 0 mm | - | - | - |
| 1777584092 | 28.33° C | 56% | 1008.8 hPa | 0 mm | - | - | - |
| 1777583491 | 28.33° C | 55% | 1009 hPa | 0 mm | - | - | - |
| 1777582891 | 30° C | 51% | 1009.1 hPa | 0 mm | - | - | - |
| 1777582291 | 30° C | 52% | 1009.1 hPa | 0 mm | - | - | - |
| 1777581691 | 30° C | 53% | 1009.4 hPa | 0 mm | - | - | - |
| 1777581092 | 28.33° C | 56% | 1009.5 hPa | 0 mm | - | - | - |
* Rain latest hour (hover to see other rain measurements)
** Current wind speed in m/s (hover to see current wind gust speed)